Time;durP1;ratioP1;P1;durP2;ratioP2;P2;SDS_P1;SDS_P2;PMS_P1;PMS_P2;Temp;Humidity;BMP_temperature;BMP_pressure;BME280_temperature;BME280_humidity;BME280_pressure;Samples;Min_cycle;Max_cycle;Signal;HPM_P1;HPM_P2
2022/12/23 00:01:12;;;;;;;109.53;53.50;;;4.60;96.70;;;4.38;61.89;94824.09;5078931;28;20471;-56
2022/12/23 00:03:40;;;;;;;106.23;49.40;;;4.50;96.50;;;4.37;61.87;94826.81;5077572;28;20523;-56
2022/12/23 00:06:09;;;;;;;126.57;53.03;;;4.50;96.50;;;4.30;61.83;94823.78;5077325;28;20535;-55
2022/12/23 00:08:36;;;;;;;116.30;51.57;;;4.50;96.60;;;4.31;61.94;94831.50;5081190;28;20492;-57
2022/12/23 00:11:04;;;;;;;122.23;52.50;;;4.50;96.50;;;4.29;61.95;94830.78;5076813;28;20520;-55
2022/12/23 00:16:17;;;;;;;106.53;50.67;;;4.50;96.50;;;4.22;61.84;94826.09;5074762;28;21001;-55
2022/12/23 00:18:45;;;;;;;103.37;48.80;;;4.40;96.40;;;4.19;61.84;94829.72;5073450;28;20551;-58
2022/12/23 00:21:14;;;;;;;112.57;50.90;;;4.40;96.40;;;4.17;61.82;94831.59;5070872;28;20532;-58
2022/12/23 00:23:43;;;;;;;115.17;48.93;;;4.40;96.60;;;4.15;62.10;94837.81;5072882;28;20458;-56
2022/12/23 00:26:14;;;;;;;112.10;49.90;;;4.30;96.60;;;4.12;61.65;94836.25;5079008;28;21051;-57
2022/12/23 00:28:42;;;;;;;98.40;48.93;;;4.30;96.60;;;4.11;62.14;94842.41;5081127;28;20546;-58
2022/12/23 00:31:12;;;;;;;112.27;51.83;;;4.30;96.70;;;4.09;62.08;94831.25;5080121;28;20539;-58
2022/12/23 00:33:40;;;;;;;110.83;47.47;;;4.30;96.70;;;4.08;62.46;94843.44;5084040;28;20458;-58
2022/12/23 00:36:19;;;;;;;101.37;49.00;;;4.30;96.70;;;4.07;62.33;94838.34;5084948;28;20949;-57
2022/12/23 00:44:16;;;;;;;101.77;48.77;;;4.20;96.80;;;4.03;62.01;94826.44;5083684;28;20449;-57
2022/12/23 00:46:44;;;;;;;121.07;48.97;;;4.20;96.70;;;4.01;62.17;94825.72;5085619;28;20454;-57
2022/12/23 00:51:57;;;;;;;105.93;48.67;;;4.20;97.00;;;4.00;63.13;94840.50;5085049;28;20752;-57
2022/12/23 00:54:24;;;;;;;110.20;47.63;;;4.20;97.20;;;4.00;62.58;94842.25;5083634;28;20457;-56
2022/12/23 00:56:52;;;;;;;103.63;45.43;;;4.20;97.30;;;4.00;62.61;94845.72;5079644;28;20893;-57
2022/12/23 00:59:20;;;;;;;112.30;50.70;;;4.20;97.20;;;3.99;62.47;94838.84;5078088;28;20459;-58
2022/12/23 01:07:17;;;;;;;111.00;53.90;;;4.20;97.60;;;4.05;62.92;94827.19;5081987;28;20813;-56
2022/12/23 01:09:44;;;;;;;111.60;51.97;;;4.20;97.40;;;4.04;62.67;94828.94;5078362;28;20486;-54
2022/12/23 01:12:11;;;;;;;127.07;58.43;;;4.20;97.20;;;4.05;62.93;94832.41;5080950;28;20490;-55
2022/12/23 01:14:40;;;;;;;127.13;57.33;;;4.20;97.30;;;4.06;62.94;94821.03;5083005;28;20478;-56
2022/12/23 01:17:08;;;;;;;120.27;57.27;;;4.30;97.40;;;4.05;62.42;94816.78;5077973;28;20554;-57
2022/12/23 01:19:35;;;;;;;115.57;54.60;;;4.20;97.30;;;4.07;62.95;94827.91;5077241;28;20879;-58
2022/12/23 01:22:02;;;;;;;121.70;53.73;;;4.20;97.60;;;4.10;62.87;94825.13;5074715;28;20523;-58
2022/12/23 01:24:30;;;;;;;102.50;51.50;;;4.30;97.70;;;4.11;62.72;94826.78;5078554;28;20853;-58
2022/12/23 01:26:57;;;;;;;106.03;49.97;;;4.30;97.50;;;4.15;63.09;94830.00;5076037;28;20963;-57
2022/12/23 01:29:25;;;;;;;112.47;53.00;;;4.30;97.70;;;4.18;62.96;94841.06;5076279;28;20458;-57
2022/12/23 01:31:53;;;;;;;97.10;47.83;;;4.30;97.70;;;4.19;63.19;94827.09;5073490;28;20510;-58
2022/12/23 01:34:20;;;;;;;115.20;47.83;;;4.30;97.70;;;4.21;62.78;94827.00;5078987;28;20473;-55
2022/12/23 01:36:48;;;;;;;93.87;46.87;;;4.40;97.60;;;4.23;63.68;94815.56;5079080;28;21022;-56
2022/12/23 01:39:15;;;;;;;87.73;44.17;;;4.40;97.80;;;4.26;62.82;94812.75;5081497;28;20458;-55
2022/12/23 01:45:00;;;;;;;75.57;41.67;;;4.50;97.80;;;4.34;62.54;94808.78;5076629;28;20588;-56
2022/12/23 01:47:33;;;;;;;107.90;45.60;;;4.50;97.60;;;4.36;62.91;94789.53;5027846;28;20480;-56
2022/12/23 01:50:05;;;;;;;98.33;45.80;;;4.50;97.70;;;4.36;62.93;94786.94;5017262;28;20477;-55
2022/12/23 01:52:34;;;;;;;94.97;47.57;;;4.50;97.40;;;4.34;62.55;94786.22;5044340;28;20442;-55
2022/12/23 01:55:01;;;;;;;101.33;49.07;;;4.50;97.30;;;4.31;62.87;94776.81;5077488;28;21010;-55
2022/12/23 01:57:29;;;;;;;97.10;51.70;;;4.50;97.40;;;4.29;62.68;94781.31;5080028;28;20548;-56
2022/12/23 02:05:27;;;;;;;81.83;42.00;;;4.50;97.90;;;4.33;63.61;94784.53;5082546;28;20516;-56
2022/12/23 02:10:51;;;;;;;106.00;46.20;;;4.50;97.90;;;4.38;63.02;94771.19;5072425;28;20871;-58
2022/12/23 02:13:22;;;;;;;113.63;51.83;;;4.50;97.80;;;4.36;62.74;94766.09;5078834;28;20510;-55
2022/12/23 02:18:48;;;;;;;141.63;57.00;;;4.50;97.60;;;4.33;63.05;94768.09;5073691;28;20612;-57
2022/12/23 02:21:54;;;;;;;117.37;53.27;;;4.50;97.90;;;4.33;63.56;94774.13;5074319;28;21034;-57
2022/12/23 02:25:18;;;;;;;111.83;51.47;;;4.50;97.80;;;4.31;63.25;94770.78;5079901;28;20459;-57
2022/12/23 02:27:56;;;;;;;125.43;52.17;;;4.50;97.80;;;4.28;62.67;94778.81;5075073;28;20544;-57
2022/12/23 02:30:41;;;;;;;116.57;53.10;;;4.50;97.70;;;4.25;62.65;94766.00;5078812;28;20906;-57
2022/12/23 02:33:29;;;;;;;112.80;52.63;;;4.40;97.60;;;4.23;62.99;94758.28;5077996;28;20508;-58
2022/12/23 02:36:05;;;;;;;112.80;53.60;;;4.40;97.50;;;4.19;62.56;94761.22;5082524;28;20465;-56
2022/12/23 02:38:36;;;;;;;114.17;53.63;;;4.40;97.40;;;4.14;62.54;94774.53;5077150;28;20482;-58
2022/12/23 02:41:08;;;;;;;129.87;55.43;;;4.30;97.50;;;4.12;62.97;94772.03;5081078;28;20523;-57
2022/12/23 02:43:41;;;;;;;123.27;55.80;;;4.30;97.70;;;4.13;63.13;94780.66;5080819;28;21019;-56
2022/12/23 02:46:12;;;;;;;112.13;53.30;;;4.30;97.70;;;4.13;62.86;94773.69;5076546;28;20470;-57
2022/12/23 02:48:43;;;;;;;112.07;50.07;;;4.30;97.80;;;4.12;63.07;94766.84;5079642;28;20610;-58
2022/12/23 02:51:11;;;;;;;111.70;52.23;;;4.30;97.70;;;4.13;63.03;94767.66;5082008;28;20458;-57
2022/12/23 02:53:41;;;;;;;110.50;50.60;;;4.30;97.70;;;4.14;63.05;94779.75;5079203;28;20483;-58
2022/12/23 02:56:08;;;;;;;104.37;51.47;;;4.30;97.80;;;4.15;63.59;94780.56;5076531;28;20539;-58
2022/12/23 02:58:42;;;;;;;106.70;48.70;;;4.30;97.90;;;4.16;62.91;94785.66;5075453;28;20551;-57
2022/12/23 03:01:10;;;;;;;111.90;48.33;;;4.30;97.80;;;4.17;63.06;94786.50;5075415;28;20473;-57
2022/12/23 03:03:37;;;;;;;102.67;45.67;;;4.30;97.80;;;4.16;62.84;94766.63;5074867;28;20500;-57
2022/12/23 03:06:06;;;;;;;101.33;45.60;;;4.30;97.70;;;4.14;63.26;94766.72;5082431;28;20476;-56
2022/12/23 03:08:39;;;;;;;104.93;47.47;;;4.30;97.70;;;4.13;63.12;94759.84;5077519;28;20465;-57
2022/12/23 03:11:08;;;;;;;101.77;46.90;;;4.30;97.70;;;4.12;62.97;94752.97;5072031;28;20927;-58
2022/12/23 03:13:48;;;;;;;103.77;46.47;;;4.30;97.70;;;4.10;62.98;94757.44;5078210;28;20604;-55
2022/12/23 03:16:21;;;;;;;95.37;47.63;;;4.30;97.70;;;4.11;63.68;94756.53;5078221;28;20481;-57
2022/12/23 03:19:03;;;;;;;94.17;46.20;;;4.30;98.00;;;4.11;62.96;94766.94;5088615;28;20538;-57
2022/12/23 03:21:34;;;;;;;92.83;45.67;;;4.30;97.70;;;4.09;63.28;94767.03;5081298;28;21019;-57
2022/12/23 03:24:07;;;;;;;99.30;46.53;;;4.30;97.70;;;4.10;63.17;94763.47;5084144;28;20453;-56
2022/12/23 03:26:39;;;;;;;91.97;42.87;;;4.30;98.00;;;4.11;63.31;94766.94;5079883;28;20533;-58
2022/12/23 03:29:11;;;;;;;95.03;43.27;;;4.30;98.10;;;4.14;63.60;94753.72;5087108;28;20457;-57
2022/12/23 03:31:39;;;;;;;97.67;44.10;;;4.30;98.20;;;4.12;63.13;94759.03;5079099;28;20454;-56
2022/12/23 03:34:09;;;;;;;90.67;45.47;;;4.30;98.00;;;4.17;63.44;94769.13;5077965;28;20551;-58
2022/12/23 03:36:38;;;;;;;85.67;43.03;;;4.30;98.20;;;4.19;63.22;94763.81;5080752;28;20468;-58
2022/12/23 03:39:07;;;;;;;89.53;43.67;;;4.40;98.50;;;4.20;63.39;94763.72;5084066;28;20489;-55
2022/12/23 03:41:37;;;;;;;92.17;43.77;;;4.40;98.30;;;4.22;63.57;94758.41;5081043;28;20458;-58
2022/12/23 03:44:06;;;;;;;109.77;46.47;;;4.40;98.30;;;4.24;63.25;94770.34;5082890;28;20499;-57
2022/12/23 03:46:40;;;;;;;95.70;46.57;;;4.40;98.20;;;4.26;63.52;94768.50;5084099;28;20965;-55
2022/12/23 03:49:09;;;;;;;97.60;46.83;;;4.40;98.30;;;4.30;63.62;94759.53;5077538;28;20450;-56
2022/12/23 03:51:43;;;;;;;99.83;44.37;;;4.40;98.30;;;4.33;63.68;94752.47;5081936;28;20994;-56
2022/12/23 03:54:13;;;;;;;95.57;46.50;;;4.50;98.40;;;4.38;63.70;94755.56;5076570;28;20597;-57
2022/12/23 03:56:42;;;;;;;91.70;45.10;;;4.50;98.60;;;4.41;63.49;94755.38;5077213;28;20464;-58
2022/12/23 03:59:12;;;;;;;91.87;43.40;;;4.60;98.40;;;4.42;62.99;94749.22;5075221;28;21102;-58
2022/12/23 04:02:00;;;;;;;94.47;41.87;;;4.60;97.90;;;4.41;63.26;94760.56;5080076;28;20470;-57
2022/12/23 04:04:30;;;;;;;82.00;39.00;;;4.60;97.90;;;4.38;63.21;94759.00;5083318;28;20453;-57
2022/12/23 04:06:59;;;;;;;97.43;44.00;;;4.50;97.90;;;4.39;63.22;94765.06;5079268;28;21092;-57
2022/12/23 04:09:28;;;;;;;94.27;43.97;;;4.50;98.10;;;4.41;63.16;94761.41;5081778;28;20538;-55
2022/12/23 04:11:55;;;;;;;101.80;44.53;;;4.50;98.20;;;4.44;62.98;94755.16;5081087;28;20485;-57
2022/12/23 04:14:22;;;;;;;116.13;50.70;;;4.60;98.20;;;4.45;63.19;94749.84;5079827;28;20565;-57
2022/12/23 04:16:55;;;;;;;98.77;47.73;;;4.60;98.10;;;4.46;63.04;94759.34;5079139;28;20450;-56
2022/12/23 04:19:22;;;;;;;84.00;43.07;;;4.60;97.90;;;4.45;62.92;94752.44;5078508;28;20483;-57
2022/12/23 04:21:49;;;;;;;97.27;43.90;;;4.60;97.90;;;4.44;63.01;94757.75;5079861;28;20544;-56
2022/12/23 04:24:17;;;;;;;86.80;43.57;;;4.60;97.90;;;4.40;62.97;94758.91;5077629;28;20450;-56
2022/12/23 04:26:44;;;;;;;97.20;46.30;;;4.50;97.80;;;4.38;63.38;94758.19;5080330;28;20905;-57
2022/12/23 04:29:11;;;;;;;90.57;44.30;;;4.50;97.90;;;4.36;63.38;94760.88;5083798;28;20511;-57
2022/12/23 04:31:38;;;;;;;98.50;44.50;;;4.50;98.20;;;4.34;63.16;94767.13;5078775;28;20513;-56
2022/12/23 04:34:07;;;;;;;78.10;43.37;;;4.50;98.10;;;4.31;63.13;94770.78;5077561;28;20466;-55
2022/12/23 04:36:34;;;;;;;86.33;41.40;;;4.50;98.10;;;4.33;63.63;94757.66;5082442;28;20458;-55
2022/12/23 04:39:01;;;;;;;83.80;43.37;;;4.50;98.40;;;4.33;63.60;94758.50;5081877;28;20490;-57
2022/12/23 04:41:28;;;;;;;79.10;42.70;;;4.50;98.40;;;4.35;63.52;94767.03;5082550;28;20528;-56
2022/12/23 04:43:56;;;;;;;85.37;43.30;;;4.50;98.50;;;4.38;63.62;94764.22;5077138;28;20941;-57
2022/12/23 04:46:23;;;;;;;85.07;43.00;;;4.50;98.60;;;4.41;64.61;94766.59;5079421;28;20481;-57
2022/12/23 04:48:50;;;;;;;77.63;42.23;;;4.60;99.10;;;4.45;64.07;94759.44;5080497;28;20483;-57
2022/12/23 04:51:19;;;;;;;94.57;43.33;;;4.60;99.00;;;4.48;64.00;94762.66;5083527;28;21001;-57
2022/12/23 04:53:46;;;;;;;94.67;43.87;;;4.60;98.70;;;4.50;63.93;94762.53;5078583;28;20518;-59
2022/12/23 04:56:13;;;;;;;79.47;41.10;;;4.60;98.90;;;4.53;64.30;94777.13;5078589;28;20466;-58
2022/12/23 04:58:40;;;;;;;88.47;44.33;;;4.70;99.10;;;4.56;64.29;94772.53;5074845;28;20486;-60
2022/12/23 05:01:10;;;;;;;98.33;47.50;;;4.70;99.20;;;4.59;63.94;94779.31;5081238;28;20478;-57
2022/12/23 05:03:37;;;;;;;103.17;47.10;;;4.70;98.90;;;4.61;63.82;94799.09;5077183;28;20449;-57
2022/12/23 05:06:06;;;;;;;111.90;48.50;;;4.70;98.80;;;4.63;64.00;94797.25;5084537;28;20458;-56
2022/12/23 05:08:34;;;;;;;92.00;47.40;;;4.80;99.00;;;4.65;63.90;94779.72;5080788;28;20500;-57
2022/12/23 05:11:02;;;;;;;106.40;49.07;;;4.80;98.90;;;4.66;64.12;94778.78;5074869;28;20497;-59
2022/12/23 05:13:29;;;;;;;111.50;51.90;;;4.80;98.80;;;4.63;63.53;94781.59;5080502;28;20874;-59
2022/12/23 05:15:56;;;;;;;102.07;50.37;;;4.80;98.70;;;4.68;63.93;94791.72;5082021;28;20474;-56
2022/12/23 05:18:23;;;;;;;102.53;51.60;;;4.80;98.90;;;4.69;63.89;94795.13;5081872;28;20486;-55
2022/12/23 05:20:51;;;;;;;102.93;49.83;;;4.80;98.80;;;4.71;63.83;94785.44;5077287;28;20519;-56
2022/12/23 05:23:18;;;;;;;119.53;53.60;;;4.90;98.80;;;4.70;63.61;94781.19;5082516;28;20459;-56
2022/12/23 05:25:50;;;;;;;112.37;53.70;;;4.90;98.60;;;4.68;63.58;94789.09;5076013;28;20478;-59
2022/12/23 05:28:17;;;;;;;111.37;50.10;;;4.80;98.40;;;4.67;64.39;94793.47;5077156;28;21045;-56
2022/12/23 05:30:45;;;;;;;107.80;49.93;;;4.80;98.60;;;4.67;63.90;94801.28;5076429;28;20484;-59
2022/12/23 05:33:12;;;;;;;102.07;50.60;;;4.80;98.80;;;4.70;64.08;94808.06;5074269;28;20466;-54
2022/12/23 05:35:39;;;;;;;108.63;50.93;;;4.90;98.90;;;4.73;64.38;94809.63;5075278;28;21062;-55
2022/12/23 05:38:06;;;;;;;114.30;52.17;;;4.90;99.10;;;4.75;64.14;94800.75;5073877;28;20454;-57
2022/12/23 05:40:33;;;;;;;113.80;53.27;;;4.90;99.00;;;4.78;64.20;94797.09;5074665;28;20474;-57
2022/12/23 05:43:02;;;;;;;105.17;51.67;;;4.90;99.00;;;4.79;64.18;94794.41;5075029;28;20458;-58
2022/12/23 05:45:29;;;;;;;110.97;51.37;;;4.90;99.10;;;4.82;64.05;94788.16;5075980;28;20482;-58
2022/12/23 05:47:56;;;;;;;125.20;52.07;;;5.00;98.90;;;4.83;64.54;94797.63;5075688;28;20995;-57
2022/12/23 05:50:24;;;;;;;108.60;51.80;;;5.00;99.20;;;4.85;64.10;94790.53;5073691;28;20535;-59
2022/12/23 05:52:51;;;;;;;101.00;52.37;;;5.00;99.10;;;4.88;64.29;94797.28;5075973;28;21003;-59
2022/12/23 05:55:18;;;;;;;100.50;50.90;;;5.00;99.20;;;4.88;64.13;94792.94;5073345;28;20620;-57
2022/12/23 05:57:46;;;;;;;101.37;49.33;;;5.00;99.00;;;4.89;64.10;94796.38;5073869;28;21146;-55
2022/12/23 06:00:16;;;;;;;108.67;50.93;;;5.00;98.90;;;4.91;63.90;94791.88;5072431;28;20508;-57
2022/12/23 06:02:43;;;;;;;94.03;48.07;;;5.00;98.80;;;4.90;64.02;94788.44;5074338;28;20977;-58
2022/12/23 06:05:10;;;;;;;117.97;54.23;;;5.00;99.00;;;4.92;64.14;94788.34;5070237;28;21221;-58
2022/12/23 06:07:38;;;;;;;206.67;86.57;;;5.00;99.10;;;4.92;64.27;94789.16;5075966;28;20896;-56
2022/12/23 06:10:06;;;;;;;151.53;70.37;;;5.10;99.20;;;4.96;64.80;94788.00;5074351;28;20536;-57
2022/12/23 06:12:34;;;;;;;103.27;49.20;;;5.10;99.50;;;4.98;64.63;94796.53;5078569;28;20509;-56
2022/12/23 06:15:01;;;;;;;110.00;51.57;;;5.10;99.40;;;5.00;64.04;94794.69;5070594;28;20624;-56
2022/12/23 06:17:30;;;;;;;105.10;48.37;;;5.20;99.40;;;5.04;64.30;94800.50;5078260;28;20462;-58
2022/12/23 06:19:57;;;;;;;104.77;52.87;;;5.10;99.20;;;5.05;64.15;94786.53;5074933;28;20935;-57
2022/12/23 06:22:25;;;;;;;106.57;51.60;;;5.20;99.30;;;5.06;64.38;94788.19;5080192;28;20486;-57
2022/12/23 06:24:52;;;;;;;109.90;51.23;;;5.20;99.40;;;5.09;64.57;94803.59;5081281;28;20474;-58
2022/12/23 06:27:19;;;;;;;113.10;52.27;;;5.20;99.30;;;5.13;64.08;94805.06;5077542;28;20828;-57
2022/12/23 06:29:46;;;;;;;123.20;56.30;;;5.20;99.30;;;5.14;63.77;94813.72;5076975;28;20994;-57
2022/12/23 06:32:14;;;;;;;133.77;60.57;;;5.20;99.40;;;5.08;64.01;94809.78;5081590;28;20454;-57
2022/12/23 06:34:42;;;;;;;123.50;57.87;;;5.20;98.90;;;4.99;63.93;94808.66;5079438;28;20900;-54
2022/12/23 06:37:10;;;;;;;123.70;57.67;;;5.20;98.90;;;4.96;64.02;94808.03;5075315;28;21003;-57
2022/12/23 06:39:37;;;;;;;132.83;61.20;;;5.10;98.90;;;4.92;63.94;94811.78;5077212;28;20500;-58
2022/12/23 06:42:04;;;;;;;127.83;62.57;;;5.10;98.80;;;4.90;64.01;94816.28;5085280;28;20508;-54
2022/12/23 06:44:31;;;;;;;142.37;61.40;;;5.00;98.80;;;4.88;63.69;94819.00;5076146;28;20551;-58
2022/12/23 06:46:59;;;;;;;134.07;63.03;;;5.00;98.90;;;4.85;63.86;94812.22;5081105;28;20454;-58
2022/12/23 06:49:26;;;;;;;128.23;63.03;;;5.00;98.80;;;4.81;63.74;94813.34;5080989;28;20480;-56
2022/12/23 06:51:54;;;;;;;135.17;61.20;;;5.00;98.70;;;4.74;63.67;94809.53;5088703;28;20487;-57
2022/12/23 06:54:22;;;;;;;142.50;64.60;;;4.90;98.70;;;4.69;63.58;94811.59;5083898;28;20449;-57
2022/12/23 06:56:49;;;;;;;132.17;57.60;;;4.90;98.60;;;4.64;63.97;94817.13;5084608;28;21018;-58
2022/12/23 06:59:16;;;;;;;117.90;57.90;;;4.80;99.00;;;4.66;65.83;94817.00;5080943;28;20501;-58
2022/12/23 07:01:43;;;;;;;129.33;61.77;;;4.80;99.90;;;4.74;65.24;94813.88;5087531;28;20663;-57
2022/12/23 07:04:11;;;;;;;128.70;62.77;;;4.90;99.90;;;4.81;65.19;94823.78;5083347;28;20453;-58
2022/12/23 07:06:38;;;;;;;141.60;63.60;;;4.90;99.90;;;4.86;64.54;94818.25;5086967;28;20496;-55
2022/12/23 07:09:07;;;;;;;136.07;63.57;;;5.00;99.70;;;4.87;64.27;94816.50;5082822;28;20492;-57
2022/12/23 07:11:34;;;;;;;136.50;61.80;;;5.00;99.30;;;4.88;64.26;94819.00;5087129;28;20454;-55
2022/12/23 07:14:01;;;;;;;146.43;65.90;;;5.00;99.20;;;4.89;64.03;94812.81;5085097;28;20449;-57
2022/12/23 07:16:29;;;;;;;143.50;64.97;;;5.00;99.00;;;4.90;63.63;94819.72;5086852;28;20532;-57
2022/12/23 07:18:56;;;;;;;137.03;67.87;;;5.00;98.80;;;4.89;63.82;94820.63;5084823;28;21098;-55
2022/12/23 07:21:23;;;;;;;149.23;65.27;;;5.00;98.80;;;4.88;63.20;94812.94;5078983;28;20467;-60
2022/12/23 07:23:50;;;;;;;141.97;66.77;;;5.10;98.70;;;4.93;63.28;94819.50;5085423;28;20518;-55
2022/12/23 07:26:19;;;;;;;144.10;67.40;;;5.10;98.60;;;4.95;63.29;94817.59;5085788;28;20554;-58
2022/12/23 07:28:47;;;;;;;133.73;65.33;;;5.10;98.60;;;5.28;63.47;94829.19;5084666;28;20450;-54
2022/12/23 07:31:14;;;;;;;137.17;64.93;;;5.40;98.90;;;5.83;63.41;94819.19;5085861;28;20546;-59
2022/12/23 07:33:42;;;;;;;151.57;69.77;;;5.90;98.70;;;6.43;62.03;94834.88;5082355;28;20458;-58
2022/12/23 07:36:09;;;;;;;176.63;71.80;;;6.50;98.30;;;7.01;60.75;94824.34;5085535;28;20470;-57
2022/12/23 07:38:37;;;;;;;149.30;69.13;;;7.10;97.60;;;7.59;60.13;94837.25;5088513;28;20456;-60
2022/12/23 07:41:04;;;;;;;143.97;72.07;;;7.70;96.70;;;8.13;58.84;94829.44;5082742;28;20497;-57
2022/12/23 07:43:33;;;;;;;142.90;73.00;;;8.20;95.90;;;8.69;58.26;94830.94;5084668;28;20442;-55
2022/12/23 07:46:07;;;;;;;159.50;76.20;;;8.70;95.40;;;9.17;56.84;94824.28;5083871;28;21018;-57
2022/12/23 07:48:34;;;;;;;160.60;76.17;;;9.10;94.60;;;9.60;55.58;94831.84;5088697;28;20481;-56
2022/12/23 07:51:01;;;;;;;149.00;74.40;;;9.60;93.50;;;10.01;54.93;94829.16;5082416;28;20481;-58
2022/12/23 07:53:28;;;;;;;150.33;76.23;;;10.00;92.20;;;10.36;54.36;94823.41;5088029;28;20942;-57
2022/12/23 07:55:56;;;;;;;154.87;74.07;;;10.40;91.60;;;10.71;52.94;94835.09;5081755;28;21023;-55
2022/12/23 07:58:23;;;;;;;143.07;75.37;;;10.70;90.70;;;11.03;52.71;94835.69;5083143;28;20457;-58
2022/12/23 08:00:58;;;;;;;145.17;75.87;;;11.00;90.10;;;11.29;52.47;94828.00;5081365;28;20582;-57
2022/12/23 08:03:25;;;;;;;176.57;79.80;;;11.20;89.30;;;11.53;51.72;94832.75;5079496;28;20458;-58
2022/12/23 08:06:01;;;;;;;144.57;69.87;;;11.50;87.90;;;11.77;50.76;94836.63;5082694;28;20534;-58
2022/12/23 08:08:28;;;;;;;138.73;70.73;;;11.70;86.00;;;12.03;50.80;94826.22;5084731;28;20536;-57
2022/12/23 08:10:59;;;;;;;135.60;72.53;;;11.90;85.20;;;12.30;49.88;94829.75;5083757;28;20478;-57
2022/12/23 08:13:26;;;;;;;152.97;81.23;;;12.10;83.70;;;12.60;49.18;94833.81;5086628;28;20452;-55
2022/12/23 08:15:59;;;;;;;147.63;80.60;;;12.40;82.70;;;12.86;49.16;94830.38;5083559;28;20531;-56
2022/12/23 08:18:26;;;;;;;148.37;78.50;;;12.70;81.60;;;13.13;47.97;94837.28;5086866;28;20460;-56
2022/12/23 08:20:55;;;;;;;150.47;78.50;;;12.90;79.40;;;13.39;48.30;94836.47;5080401;28;20497;-57
2022/12/23 08:23:22;;;;;;;153.27;78.57;;;13.10;79.40;;;13.66;48.19;94837.25;5079576;28;20548;-57
2022/12/23 08:25:50;;;;;;;151.53;80.47;;;13.40;79.20;;;13.86;47.85;94846.56;5078011;28;21217;-56
2022/12/23 08:28:17;;;;;;;158.23;82.03;;;13.60;77.20;;;14.06;46.99;94838.34;5079516;28;20537;-57
2022/12/23 08:30:44;;;;;;;141.60;78.20;;;13.80;75.60;;;14.24;45.49;94831.13;5076977;28;20478;-56
2022/12/23 08:33:13;;;;;;;141.63;76.60;;;14.00;73.00;;;14.40;46.47;94830.28;5078203;28;20543;-57
2022/12/23 08:35:40;;;;;;;158.10;81.53;;;14.20;74.50;;;14.54;45.74;94834.13;5086976;28;20478;-57
2022/12/23 08:38:07;;;;;;;150.83;74.97;;;14.30;72.70;;;14.70;45.26;94834.16;5082203;28;20454;-56
2022/12/23 08:40:34;;;;;;;137.53;72.93;;;14.50;71.20;;;14.86;45.18;94833.31;5086226;28;20490;-56
2022/12/23 08:43:02;;;;;;;117.90;68.27;;;14.60;70.90;;;15.08;45.15;94832.78;5079753;28;20500;-55
2022/12/23 08:45:29;;;;;;;114.00;65.37;;;14.80;70.90;;;15.16;44.63;94828.28;5079551;28;20478;-57
2022/12/23 08:47:57;;;;;;;118.13;61.40;;;14.90;69.20;;;14.95;44.29;94828.00;5085891;28;20457;-56
2022/12/23 08:50:25;;;;;;;114.33;65.47;;;14.80;68.50;;;14.51;44.31;94831.78;5086054;28;20871;-56
2022/12/23 08:52:52;;;;;;;113.13;63.40;;;14.50;66.80;;;14.09;44.87;94836.22;5082429;28;20446;-54
2022/12/23 08:55:20;;;;;;;129.00;67.93;;;14.20;67.10;;;13.73;45.12;94830.34;5085803;28;20546;-56
2022/12/23 08:57:47;;;;;;;131.80;64.87;;;13.90;66.80;;;13.34;45.62;94822.91;5076135;28;20454;-57
2022/12/23 09:00:15;;;;;;;140.57;70.57;;;13.50;67.00;;;13.02;46.02;94827.81;5081819;28;20568;-56
2022/12/23 09:02:42;;;;;;;122.20;65.50;;;13.20;67.90;;;12.79;46.27;94835.41;5081285;28;20454;-55
2022/12/23 09:05:10;;;;;;;128.20;63.37;;;12.90;68.40;;;12.56;46.64;94829.81;5085448;28;21012;-58
2022/12/23 09:07:38;;;;;;;120.03;63.70;;;12.60;68.90;;;12.34;46.96;94831.94;5083008;28;20442;-57
2022/12/23 09:10:07;;;;;;;138.37;69.17;;;12.40;69.30;;;12.12;47.37;94830.59;5086246;28;20523;-57
2022/12/23 09:12:34;;;;;;;115.27;63.73;;;12.20;70.30;;;11.91;47.60;94832.66;5082302;28;20457;-55
2022/12/23 09:15:02;;;;;;;125.67;67.07;;;12.00;70.40;;;11.71;47.99;94829.31;5084568;28;20485;-57
2022/12/23 09:17:29;;;;;;;131.33;68.40;;;11.80;71.10;;;11.48;48.42;94821.81;5083064;28;20457;-55
2022/12/23 09:19:56;;;;;;;126.27;66.10;;;11.60;71.60;;;11.32;48.18;94819.81;5084258;28;20495;-57
2022/12/23 09:22:24;;;;;;;126.57;62.60;;;11.40;71.80;;;11.15;49.08;94828.47;5082351;28;20454;-56
2022/12/23 09:24:54;;;;;;;122.17;65.23;;;11.20;72.60;;;10.97;48.69;94831.88;5084701;28;20474;-57
2022/12/23 09:27:21;;;;;;;117.97;62.17;;;11.00;72.50;;;10.80;49.42;94824.69;5082440;28;20442;-58
2022/12/23 09:29:49;;;;;;;120.23;66.17;;;10.90;73.20;;;10.61;49.69;94825.56;5085046;28;20485;-54
2022/12/23 09:32:16;;;;;;;146.20;68.03;;;10.70;73.90;;;10.44;49.68;94835.00;5082414;28;20511;-54
2022/12/23 09:34:43;;;;;;;132.03;65.20;;;10.50;75.00;;;10.25;49.99;94831.38;5083722;28;20478;-55
2022/12/23 09:37:11;;;;;;;133.60;66.50;;;10.30;74.80;;;10.14;50.38;94834.16;5085732;28;20465;-55
2022/12/23 09:39:38;;;;;;;157.63;71.30;;;10.20;75.80;;;9.97;50.81;94822.53;5080219;28;20561;-53
2022/12/23 09:42:14;;;;;;;130.20;69.70;;;10.10;76.00;;;9.90;50.96;94832.75;5082923;28;20450;-57
2022/12/23 09:45:01;;;;;;;132.73;68.43;;;10.00;76.80;;;9.79;51.37;94825.84;5081388;28;20676;-57
2022/12/23 09:47:29;;;;;;;131.17;68.23;;;9.80;78.70;;;9.73;51.63;94825.53;5083038;28;20829;-56
2022/12/23 09:49:59;;;;;;;134.70;69.77;;;9.80;80.00;;;9.66;51.80;94820.00;5081852;28;20894;-57
2022/12/23 09:52:37;;;;;;;147.13;70.53;;;9.70;79.80;;;9.60;51.77;94821.34;5085461;28;20885;-55
2022/12/23 09:55:05;;;;;;;140.47;66.40;;;9.60;80.60;;;9.55;52.22;94820.94;5079082;28;20476;-56
2022/12/23 09:57:37;;;;;;;126.47;60.60;;;9.60;81.10;;;9.50;51.99;94823.97;5084354;28;20453;-57
2022/12/23 10:00:09;;;;;;;128.80;63.30;;;9.50;81.30;;;9.47;52.01;94820.78;5078008;28;20499;-56
2022/12/23 10:02:52;;;;;;;132.57;61.23;;;9.50;81.40;;;9.42;52.39;94812.47;5084535;28;20496;-55
2022/12/23 10:05:30;;;;;;;137.77;62.07;;;9.50;82.50;;;9.39;52.30;94823.22;5081094;28;20519;-57
2022/12/23 10:08:01;;;;;;;118.83;61.07;;;9.40;82.40;;;9.39;52.62;94805.72;5085291;28;20485;-56
2022/12/23 10:10:33;;;;;;;117.60;60.90;;;9.40;82.90;;;9.43;52.56;94804.44;5079379;28;20895;-55
2022/12/23 10:13:04;;;;;;;118.93;57.70;;;9.40;83.10;;;9.50;52.60;94802.13;5085173;28;20446;-56
2022/12/23 10:15:36;;;;;;;125.23;65.47;;;9.50;83.30;;;9.56;52.66;94798.13;5078382;28;20504;-56
2022/12/23 10:18:07;;;;;;;126.20;60.07;;;9.60;83.80;;;9.62;52.70;94800.22;5083854;28;20438;-57
2022/12/23 10:20:41;;;;;;;128.93;63.43;;;9.60;83.80;;;9.66;52.68;94805.06;5080587;28;20604;-56
2022/12/23 10:23:15;;;;;;;131.80;60.43;;;9.70;83.90;;;9.72;52.80;94795.00;5081939;28;20790;-55
2022/12/23 10:25:49;;;;;;;129.67;63.27;;;9.70;84.20;;;9.84;52.64;94792.09;5081364;28;20469;-56
2022/12/23 10:28:18;;;;;;;120.00;61.27;;;9.80;84.20;;;10.01;52.36;94798.47;5078230;28;20509;-56
2022/12/23 10:30:54;;;;;;;118.50;60.20;;;9.90;84.30;;;10.13;52.43;94795.69;5078406;28;20475;-56
2022/12/23 10:33:23;;;;;;;127.97;62.50;;;10.10;82.90;;;10.22;52.44;94792.22;5079750;28;20462;-56
2022/12/23 10:36:00;;;;;;;118.77;61.37;;;10.10;82.50;;;10.36;52.05;94783.09;5078209;28;20479;-54
2022/12/23 10:38:39;;;;;;;122.80;63.20;;;10.30;82.30;;;10.60;51.83;94785.28;5084216;28;20468;-58
2022/12/23 10:41:11;;;;;;;120.50;61.50;;;10.50;82.40;;;10.88;51.62;94774.81;5078948;28;20498;-55
2022/12/23 10:43:54;;;;;;;127.13;62.83;;;10.70;82.30;;;11.23;50.91;94775.91;5081078;28;20450;-57
2022/12/23 10:46:25;;;;;;;146.00;65.53;;;11.00;81.70;;;11.62;50.46;94773.09;5078054;28;20527;-55
2022/12/23 10:48:59;;;;;;;136.43;62.07;;;11.40;80.70;;;12.18;49.42;94769.34;5083457;28;20459;-55
2022/12/23 10:51:29;;;;;;;111.20;58.00;;;11.80;79.60;;;12.45;48.53;94770.19;5082002;28;20545;-57